createdAt,value
2024-05-09T00:01:59.167Z,4.59
2024-05-09T00:04:30.609Z,4.63
2024-05-09T00:07:01.438Z,4.62
2024-05-09T00:09:33.030Z,4.64
2024-05-09T00:12:04.094Z,4.66
2024-05-09T00:14:35.644Z,4.67
2024-05-09T00:17:10.058Z,4.70
2024-05-09T00:19:42.798Z,4.72
2024-05-09T00:22:13.675Z,4.75
2024-05-09T00:24:45.011Z,4.78
2024-05-09T00:27:15.904Z,4.81
2024-05-09T00:29:47.213Z,4.80
2024-05-09T00:32:20.982Z,4.79
2024-05-09T00:34:53.749Z,4.81
2024-05-09T00:37:24.785Z,4.83
2024-05-09T00:39:56.536Z,4.91
2024-05-09T00:42:27.500Z,5.01
2024-05-09T00:44:58.759Z,5.01
2024-05-09T00:47:32.518Z,5.05
2024-05-09T00:50:07.636Z,5.11
2024-05-09T00:52:43.986Z,5.15
2024-05-09T00:55:16.189Z,5.16
2024-05-09T00:57:47.843Z,5.16
2024-05-09T01:00:27.124Z,5.20
2024-05-09T01:03:10.970Z,5.24
2024-05-09T01:05:44.584Z,5.29
2024-05-09T01:08:16.695Z,5.29
2024-05-09T01:10:48.896Z,5.29
2024-05-09T01:13:19.839Z,5.27
2024-05-09T01:15:54.014Z,5.27
2024-05-09T01:18:27.827Z,5.29
2024-05-09T01:20:59.148Z,5.30
2024-05-09T01:23:32.781Z,5.30
2024-05-09T01:26:04.121Z,5.29
2024-05-09T01:28:34.963Z,5.34
2024-05-09T01:31:06.471Z,5.32
2024-05-09T01:33:37.683Z,5.32
2024-05-09T01:36:09.723Z,5.33
2024-05-09T01:38:43.201Z,5.30
2024-05-09T01:41:14.521Z,5.29
2024-05-09T01:43:45.432Z,5.30
2024-05-09T01:46:17.669Z,5.33
2024-05-09T01:48:49.084Z,5.35
2024-05-09T01:51:20.764Z,5.35
2024-05-09T01:53:56.978Z,5.34
2024-05-09T01:56:28.402Z,5.31
2024-05-09T01:58:59.442Z,5.34
2024-05-09T02:01:30.808Z,5.35
2024-05-09T02:04:21.819Z,5.36
2024-05-09T02:06:53.488Z,5.38
2024-05-09T02:09:27.085Z,5.39
2024-05-09T02:11:58.584Z,5.43
2024-05-09T02:14:29.638Z,5.47
2024-05-09T02:17:01.073Z,5.49
2024-05-09T02:19:32.141Z,5.50
2024-05-09T02:22:03.545Z,5.55
2024-05-09T02:24:37.035Z,5.59
2024-05-09T02:27:08.593Z,5.63
2024-05-09T02:29:39.624Z,5.65
2024-05-09T02:32:11.158Z,5.67
2024-05-09T02:34:42.020Z,5.66
2024-05-09T02:37:10.661Z,5.69
2024-05-09T02:39:44.019Z,5.70
2024-05-09T02:42:12.631Z,5.70
2024-05-09T02:44:43.417Z,5.73
2024-05-09T02:47:12.144Z,5.74
2024-05-09T02:49:43.210Z,5.76
2024-05-09T02:52:11.966Z,5.77
2024-05-09T02:54:45.362Z,5.78
2024-05-09T02:57:14.207Z,5.80
2024-05-09T02:59:46.201Z,5.82
2024-05-09T03:02:14.985Z,5.85
2024-05-09T03:04:45.950Z,5.86
2024-05-09T03:07:14.762Z,5.85
2024-05-09T03:09:51.980Z,5.84
2024-05-09T03:12:20.695Z,5.87
2024-05-09T03:14:53.682Z,5.90
2024-05-09T03:17:24.314Z,5.90
2024-05-09T03:19:55.695Z,5.90
2024-05-09T03:22:24.428Z,5.88
2024-05-09T03:24:57.841Z,5.90
2024-05-09T03:27:26.578Z,5.91
2024-05-09T03:29:57.364Z,5.90
2024-05-09T03:32:29.163Z,5.90
2024-05-09T03:34:57.655Z,5.91
2024-05-09T03:37:29.090Z,5.95
2024-05-09T03:40:02.931Z,5.99
2024-05-09T03:42:40.863Z,6.03
2024-05-09T03:45:09.407Z,6.03
2024-05-09T03:47:41.000Z,6.05
2024-05-09T03:50:17.626Z,6.08
2024-05-09T03:52:53.590Z,6.12
2024-05-09T03:55:24.402Z,6.15
2024-05-09T03:57:55.674Z,6.14
2024-05-09T04:00:31.313Z,6.17
2024-05-09T04:03:11.532Z,6.20
2024-05-09T04:05:42.788Z,6.23
2024-05-09T04:08:18.134Z,6.26
2024-05-09T04:10:49.278Z,6.31
2024-05-09T04:13:20.728Z,6.36
2024-05-09T04:15:49.004Z,6.42
2024-05-09T04:18:20.915Z,6.49
2024-05-09T04:20:49.379Z,6.58
2024-05-09T04:23:20.969Z,6.65
2024-05-09T04:25:51.914Z,6.73
2024-05-09T04:28:24.342Z,6.80
2024-05-09T04:30:52.525Z,6.90
2024-05-09T04:33:23.937Z,6.99
2024-05-09T04:35:53.609Z,7.09
2024-05-09T04:38:24.952Z,7.19
2024-05-09T04:40:55.868Z,7.28
2024-05-09T04:43:27.506Z,7.37
2024-05-09T04:45:55.659Z,7.45
2024-05-09T04:48:27.300Z,7.53
2024-05-09T04:50:55.647Z,7.62
2024-05-09T04:53:27.261Z,7.72
2024-05-09T04:55:58.276Z,7.83
2024-05-09T04:58:29.629Z,7.94
2024-05-09T05:00:58.057Z,8.06
2024-05-09T05:03:29.464Z,8.17
2024-05-09T05:05:57.982Z,8.26
2024-05-09T05:08:29.788Z,8.39
2024-05-09T05:11:00.973Z,8.51
2024-05-09T05:13:36.738Z,8.63
2024-05-09T05:16:09.376Z,8.78
2024-05-09T05:18:38.194Z,8.90
2024-05-09T05:21:09.730Z,9.03
2024-05-09T05:23:38.500Z,9.16
2024-05-09T05:26:12.151Z,9.28
2024-05-09T05:28:40.816Z,9.35
2024-05-09T05:31:11.797Z,9.45
2024-05-09T05:33:40.506Z,9.55
2024-05-09T05:36:12.315Z,9.63
2024-05-09T05:38:41.122Z,9.72
2024-05-09T05:41:17.620Z,9.80
2024-05-09T05:43:46.718Z,9.88
2024-05-09T05:46:17.585Z,9.96
2024-05-09T05:48:46.467Z,10.08
2024-05-09T05:51:17.482Z,10.17
2024-05-09T05:53:46.583Z,10.28
2024-05-09T05:56:20.229Z,10.39
2024-05-09T05:58:49.988Z,10.52
2024-05-09T06:01:20.908Z,10.65
2024-05-09T06:03:49.678Z,10.78
2024-05-09T06:06:20.576Z,10.91
2024-05-09T06:08:49.351Z,11.04
2024-05-09T06:11:22.838Z,11.18
2024-05-09T06:13:51.496Z,11.32
2024-05-09T06:16:22.450Z,11.45
2024-05-09T06:18:51.260Z,11.57
2024-05-09T06:21:22.488Z,11.67
2024-05-09T06:23:51.289Z,11.78
2024-05-09T06:26:24.765Z,11.92
2024-05-09T06:28:53.443Z,12.05
2024-05-09T06:31:24.357Z,12.12
2024-05-09T06:33:53.181Z,12.24
2024-05-09T06:36:24.110Z,12.38
2024-05-09T06:38:52.894Z,12.51
2024-05-09T06:41:26.465Z,12.63
2024-05-09T06:43:55.353Z,12.77
2024-05-09T06:46:26.760Z,12.93
2024-05-09T06:48:55.751Z,13.07
2024-05-09T06:51:26.762Z,13.17
2024-05-09T06:53:55.751Z,13.28
2024-05-09T06:56:29.440Z,13.40
2024-05-09T06:58:58.180Z,13.55
2024-05-09T07:01:29.069Z,13.61
2024-05-09T07:03:57.924Z,13.73
2024-05-09T07:06:28.829Z,13.82
2024-05-09T07:08:57.508Z,13.94
2024-05-09T07:11:31.664Z,14.05
2024-05-09T07:14:00.610Z,14.15
2024-05-09T07:16:31.461Z,14.25
2024-05-09T07:19:00.251Z,14.34
2024-05-09T07:21:32.447Z,14.40
2024-05-09T07:24:02.278Z,14.44
2024-05-09T07:26:35.853Z,14.54
2024-05-09T07:29:04.903Z,14.67
2024-05-09T07:31:35.782Z,14.77
2024-05-09T07:34:04.637Z,14.84
2024-05-09T07:36:35.501Z,14.94
2024-05-09T07:39:05.933Z,15.04
2024-05-09T07:41:39.833Z,15.09
2024-05-09T07:44:08.889Z,15.21
2024-05-09T07:47:47.664Z,15.32
2024-05-09T07:53:25.392Z,15.46
2024-05-09T07:54:51.014Z,15.57
2024-05-09T07:57:24.635Z,15.70
2024-05-09T07:59:53.644Z,15.81
2024-05-09T08:02:24.551Z,15.88
2024-05-09T08:04:53.643Z,15.97
2024-05-09T08:07:24.682Z,16.10
2024-05-09T08:09:54.229Z,16.17
2024-05-09T08:12:27.917Z,16.23
2024-05-09T08:14:56.648Z,16.32
2024-05-09T08:17:27.621Z,16.35
2024-05-09T08:19:56.397Z,16.40
2024-05-09T08:22:30.646Z,16.47
2024-05-09T08:24:59.519Z,16.52
2024-05-09T08:27:32.986Z,16.53
2024-05-09T08:30:01.841Z,16.52
2024-05-09T08:32:34.868Z,16.54
2024-05-09T08:35:03.949Z,16.53
2024-05-09T08:37:38.739Z,16.55
2024-05-09T08:40:16.674Z,16.55
2024-05-09T08:42:56.236Z,16.53
2024-05-09T08:45:25.995Z,16.57
2024-05-09T08:47:57.904Z,16.63
2024-05-09T08:50:35.375Z,16.64
2024-05-09T08:53:09.639Z,16.71
2024-05-09T08:55:41.787Z,16.76
2024-05-09T08:58:19.693Z,16.81
2024-05-09T09:00:49.784Z,16.85
2024-05-09T09:03:25.071Z,16.90
2024-05-09T09:06:05.951Z,16.90
2024-05-09T09:08:36.761Z,16.92
2024-05-09T09:11:05.942Z,16.95
2024-05-09T09:13:39.318Z,16.92
2024-05-09T09:16:08.611Z,16.90
2024-05-09T09:18:39.586Z,16.88
2024-05-09T09:21:11.610Z,16.87
2024-05-09T09:23:42.983Z,16.87
2024-05-09T09:26:16.812Z,16.86
2024-05-09T09:28:50.885Z,16.83
2024-05-09T09:31:20.000Z,16.87
2024-05-09T09:33:51.054Z,16.87
2024-05-09T09:36:19.997Z,16.83
2024-05-09T09:38:51.390Z,16.84
2024-05-09T09:41:26.022Z,16.85
2024-05-09T09:44:01.594Z,16.84
2024-05-09T09:46:31.276Z,16.85
2024-05-09T09:49:02.200Z,16.85
2024-05-09T09:51:32.258Z,16.89
2024-05-09T09:54:06.455Z,16.92
2024-05-09T09:56:39.219Z,16.97
2024-05-09T09:59:15.515Z,16.99
2024-05-09T10:01:46.031Z,16.99
2024-05-09T10:04:19.149Z,17.06
2024-05-09T10:06:53.201Z,17.09
2024-05-09T10:09:24.589Z,17.10
2024-05-09T10:11:59.739Z,17.16
2024-05-09T10:14:42.494Z,17.24
2024-05-09T10:17:11.309Z,17.27
2024-05-09T10:19:42.172Z,17.31
2024-05-09T10:22:11.241Z,17.36
2024-05-09T10:24:53.396Z,17.42
2024-05-09T10:27:29.465Z,17.48
2024-05-09T10:30:09.108Z,17.52
2024-05-09T10:32:44.999Z,17.56
2024-05-09T10:35:16.583Z,17.60
2024-05-09T10:37:46.744Z,17.69
2024-05-09T10:40:26.017Z,17.77
2024-05-09T10:43:04.534Z,17.84
2024-05-09T10:45:41.695Z,17.91
2024-05-09T10:48:11.246Z,17.96
2024-05-09T10:50:43.930Z,18.02
2024-05-09T10:53:12.707Z,18.08
2024-05-09T10:55:43.469Z,18.12
2024-05-09T10:58:18.304Z,18.17
2024-05-09T11:00:52.110Z,18.22
2024-05-09T11:03:21.672Z,18.26
2024-05-09T11:05:52.836Z,18.31
2024-05-09T11:08:22.618Z,18.35
2024-05-09T11:10:55.272Z,18.42
2024-05-09T11:13:28.123Z,18.48
2024-05-09T11:16:02.885Z,18.52
2024-05-09T11:18:36.496Z,18.58
2024-05-09T11:21:15.756Z,18.64
2024-05-09T11:23:44.429Z,18.70
2024-05-09T11:26:15.730Z,18.75
2024-05-09T11:28:45.629Z,18.84
2024-05-09T11:31:19.420Z,18.92
2024-05-09T11:33:48.393Z,18.97
2024-05-09T11:36:19.362Z,19.00
2024-05-09T11:38:48.192Z,19.05
2024-05-09T11:41:21.074Z,19.09
2024-05-09T11:43:50.950Z,19.15
2024-05-09T11:46:24.914Z,19.22
2024-05-09T11:48:56.488Z,19.25
2024-05-09T11:51:24.874Z,19.26
2024-05-09T11:53:57.288Z,19.29
2024-05-09T11:56:25.584Z,19.36
2024-05-09T11:58:57.095Z,19.40
2024-05-09T12:01:28.352Z,19.43
2024-05-09T12:04:01.385Z,19.40
2024-05-09T12:06:30.187Z,19.42
2024-05-09T12:09:01.712Z,19.45
2024-05-09T12:11:30.139Z,19.51
2024-05-09T12:14:01.331Z,19.54
2024-05-09T12:16:32.492Z,19.59
2024-05-09T12:19:04.040Z,19.68
2024-05-09T12:21:32.558Z,19.79
2024-05-09T12:24:03.827Z,19.88
2024-05-09T12:26:32.554Z,19.95
2024-05-09T12:29:03.748Z,20.06
2024-05-09T12:31:34.786Z,20.12
2024-05-09T12:34:06.193Z,20.13
2024-05-09T12:36:34.740Z,20.21
2024-05-09T12:39:06.450Z,20.28
2024-05-09T12:41:34.790Z,20.31
2024-05-09T12:44:05.990Z,20.39
2024-05-09T12:46:37.097Z,20.46
2024-05-09T12:49:08.628Z,20.48
2024-05-09T12:51:36.992Z,20.50
2024-05-09T12:54:08.373Z,20.56
2024-05-09T12:56:36.764Z,20.61
2024-05-09T12:59:07.929Z,20.60
2024-05-09T13:01:38.936Z,20.69
2024-05-09T13:04:10.462Z,20.73
2024-05-09T13:06:39.016Z,20.73
2024-05-09T13:09:10.311Z,20.71
2024-05-09T13:11:38.873Z,20.69
2024-05-09T13:14:10.146Z,20.65
2024-05-09T13:16:41.197Z,20.59
2024-05-09T13:19:12.633Z,20.55
2024-05-09T13:21:40.954Z,20.55
2024-05-09T13:24:12.228Z,20.55
2024-05-09T13:26:40.736Z,20.56
2024-05-09T13:29:11.928Z,20.54
2024-05-09T13:31:42.958Z,20.57
2024-05-09T13:34:14.345Z,20.63
2024-05-09T13:36:42.941Z,20.75
2024-05-09T13:39:14.153Z,20.81
2024-05-09T13:41:42.476Z,20.87
2024-05-09T13:44:13.721Z,20.94
2024-05-09T13:46:44.906Z,21.02
2024-05-09T13:49:17.591Z,21.08
2024-05-09T13:51:46.110Z,21.17
2024-05-09T13:54:20.179Z,21.28
2024-05-09T13:56:52.200Z,21.34
2024-05-09T13:59:23.448Z,21.45
2024-05-09T14:01:54.644Z,21.52
2024-05-09T14:04:26.193Z,21.56
2024-05-09T14:06:54.719Z,21.56
2024-05-09T14:09:25.885Z,21.59
2024-05-09T14:11:54.229Z,21.74
2024-05-09T14:14:25.514Z,21.95
2024-05-09T14:16:56.632Z,22.28
2024-05-09T14:19:28.225Z,22.71
2024-05-09T14:21:56.634Z,23.06
2024-05-09T14:24:27.791Z,23.32
2024-05-09T14:26:56.148Z,23.43
2024-05-09T14:29:27.351Z,23.54
2024-05-09T14:31:58.287Z,23.55
2024-05-09T14:34:29.803Z,23.48
2024-05-09T14:36:59.054Z,23.36
2024-05-09T14:39:30.311Z,23.29
2024-05-09T14:41:58.624Z,23.20
2024-05-09T14:44:29.776Z,23.15
2024-05-09T14:47:01.115Z,23.06
2024-05-09T14:49:32.535Z,22.94
2024-05-09T14:52:00.869Z,22.87
2024-05-09T14:54:32.173Z,22.71
2024-05-09T14:57:01.154Z,22.66
2024-05-09T14:59:32.400Z,22.52
2024-05-09T15:02:03.676Z,22.29
2024-05-09T15:04:35.076Z,22.22
2024-05-09T15:07:03.655Z,22.15
2024-05-09T15:09:37.944Z,21.90
2024-05-09T15:12:09.520Z,21.84
2024-05-09T15:14:40.800Z,21.73
2024-05-09T15:17:11.905Z,21.65
2024-05-09T15:19:43.501Z,21.59
2024-05-09T15:22:16.489Z,21.56
2024-05-09T15:24:48.611Z,21.58
2024-05-09T15:27:18.692Z,21.52
2024-05-09T15:29:49.934Z,21.55
2024-05-09T15:32:20.881Z,21.42
2024-05-09T15:34:52.129Z,21.41
2024-05-09T15:37:20.768Z,21.37
2024-05-09T15:39:52.443Z,21.30
2024-05-09T15:42:20.870Z,21.18
2024-05-09T15:44:53.209Z,21.00
2024-05-09T15:47:24.454Z,20.94
2024-05-09T15:49:55.912Z,20.97
2024-05-09T15:52:24.343Z,20.88
2024-05-09T15:54:55.596Z,20.89
2024-05-09T15:57:25.200Z,20.91
2024-05-09T15:59:56.458Z,20.86
2024-05-09T16:02:27.567Z,20.83
2024-05-09T16:04:59.082Z,20.66
2024-05-09T16:07:27.533Z,20.59
2024-05-09T16:09:58.825Z,20.56
2024-05-09T16:12:27.131Z,20.55
2024-05-09T16:14:58.479Z,20.55
2024-05-09T16:17:29.593Z,20.62
2024-05-09T16:20:01.140Z,20.66
2024-05-09T16:22:29.515Z,20.85
2024-05-09T16:25:00.744Z,21.19
2024-05-09T16:27:29.418Z,21.41
2024-05-09T16:30:04.191Z,21.54
2024-05-09T16:32:40.987Z,21.75
2024-05-09T16:35:12.427Z,21.85
2024-05-09T16:37:40.740Z,21.84
2024-05-09T16:40:22.014Z,21.78
2024-05-09T16:42:58.824Z,21.78
2024-05-09T16:45:30.701Z,21.60
2024-05-09T16:48:03.116Z,21.52
2024-05-09T16:50:36.016Z,21.44
2024-05-09T16:53:05.983Z,21.33
2024-05-09T16:55:38.583Z,21.22
2024-05-09T16:58:08.567Z,20.98
2024-05-09T17:00:43.396Z,20.93
2024-05-09T17:03:17.275Z,20.82
2024-05-09T17:05:50.759Z,20.69
2024-05-09T17:08:19.989Z,20.57
2024-05-09T17:10:51.564Z,20.49
2024-05-09T17:13:22.962Z,20.33
2024-05-09T17:15:54.482Z,20.20
2024-05-09T17:18:28.474Z,20.11
2024-05-09T17:21:00.102Z,20.00
2024-05-09T17:23:29.222Z,19.92
2024-05-09T17:26:01.282Z,19.84
2024-05-09T17:28:29.916Z,19.74
2024-05-09T17:31:01.333Z,19.66
2024-05-09T17:33:32.454Z,19.58
2024-05-09T17:36:03.986Z,19.50
2024-05-09T17:38:32.271Z,19.41
2024-05-09T17:41:03.593Z,19.35
2024-05-09T17:43:31.842Z,19.25
2024-05-09T17:46:03.793Z,19.09
2024-05-09T17:48:35.068Z,19.04
2024-05-09T17:51:06.562Z,18.98
2024-05-09T17:53:34.718Z,18.91
2024-05-09T17:56:06.266Z,18.84
2024-05-09T17:58:34.473Z,18.74
2024-05-09T18:01:06.273Z,18.64
2024-05-09T18:03:37.482Z,18.55
2024-05-09T18:06:10.182Z,18.43
2024-05-09T18:08:38.484Z,18.34
2024-05-09T18:11:09.764Z,18.23
2024-05-09T18:13:38.156Z,18.14
2024-05-09T18:16:09.934Z,18.02
2024-05-09T18:18:41.527Z,17.90
2024-05-09T18:21:12.906Z,17.78
2024-05-09T18:23:41.134Z,17.69
2024-05-09T18:26:12.544Z,17.60
2024-05-09T18:28:41.155Z,17.49
2024-05-09T18:31:12.400Z,17.37
2024-05-09T18:33:43.298Z,17.24
2024-05-09T18:36:14.627Z,17.09
2024-05-09T18:38:42.948Z,16.96
2024-05-09T18:41:14.520Z,16.83
2024-05-09T18:43:45.412Z,16.65
2024-05-09T18:46:20.068Z,16.51
2024-05-09T18:48:51.918Z,16.37
2024-05-09T18:51:23.500Z,16.25
2024-05-09T18:53:52.614Z,16.12
2024-05-09T18:56:23.929Z,16.02
2024-05-09T18:58:54.951Z,15.86
2024-05-09T19:01:23.561Z,15.71
2024-05-09T19:03:58.198Z,15.60
2024-05-09T19:06:27.019Z,15.45
2024-05-09T19:08:58.755Z,15.33
2024-05-09T19:11:27.565Z,15.27
2024-05-09T19:14:03.696Z,15.14
2024-05-09T19:16:32.404Z,15.04
2024-05-09T19:19:07.638Z,14.93
2024-05-09T19:21:37.961Z,14.84
2024-05-09T19:24:10.546Z,14.75
2024-05-09T19:26:39.313Z,14.64
2024-05-09T19:29:10.327Z,14.56
2024-05-09T19:31:39.087Z,14.46
2024-05-09T19:34:13.229Z,14.37
2024-05-09T19:36:43.285Z,14.26
2024-05-09T19:39:14.619Z,14.11
2024-05-09T19:41:43.435Z,14.12
2024-05-09T19:44:14.193Z,14.02
2024-05-09T19:46:44.251Z,13.92
2024-05-09T19:49:18.331Z,13.83
2024-05-09T19:51:47.143Z,13.76
2024-05-09T19:54:17.982Z,13.68
2024-05-09T19:56:47.873Z,13.60
2024-05-09T19:59:18.737Z,13.52
2024-05-09T20:01:48.470Z,13.45
2024-05-09T20:04:22.358Z,13.40
2024-05-09T20:06:51.842Z,13.31
2024-05-09T20:09:22.635Z,13.17
2024-05-09T20:11:53.139Z,13.12
2024-05-09T20:14:24.134Z,13.04
2024-05-09T20:16:54.118Z,12.97
2024-05-09T20:19:27.661Z,12.96
2024-05-09T20:21:56.516Z,12.86
2024-05-09T20:24:27.307Z,12.79
2024-05-09T20:26:56.093Z,12.74
2024-05-09T20:29:27.290Z,12.67
2024-05-09T20:31:55.966Z,12.65
2024-05-09T20:34:29.450Z,12.54
2024-05-09T20:36:58.157Z,12.46
2024-05-09T20:39:29.562Z,12.38
2024-05-09T20:41:58.523Z,12.31
2024-05-09T20:44:29.509Z,12.24
2024-05-09T20:46:58.251Z,12.18
2024-05-09T20:49:32.555Z,12.16
2024-05-09T20:52:01.496Z,12.07
2024-05-09T20:54:32.669Z,12.05
2024-05-09T20:57:02.954Z,11.98
2024-05-09T20:59:34.213Z,11.93
2024-05-09T21:02:03.054Z,11.88
2024-05-09T21:04:36.949Z,11.75
2024-05-09T21:07:05.912Z,11.70
2024-05-09T21:09:36.757Z,11.63
2024-05-09T21:12:05.835Z,11.58
2024-05-09T21:14:36.995Z,11.49
2024-05-09T21:17:06.016Z,11.46
2024-05-09T21:19:39.673Z,11.39
2024-05-09T21:22:08.360Z,11.33
2024-05-09T21:24:39.316Z,11.26
2024-05-09T21:27:08.056Z,11.21
2024-05-09T21:29:38.991Z,11.17
2024-05-09T21:32:08.307Z,11.10
2024-05-09T21:34:41.805Z,11.04
2024-05-09T21:37:10.861Z,10.97
2024-05-09T21:39:41.843Z,10.84
2024-05-09T21:42:10.536Z,10.75
2024-05-09T21:44:41.295Z,10.70
2024-05-09T21:47:10.112Z,10.61
2024-05-09T21:49:43.833Z,10.60
2024-05-09T21:52:12.914Z,10.58
2024-05-09T21:54:43.792Z,10.53
2024-05-09T21:57:14.624Z,10.51
2024-05-09T21:59:45.403Z,10.48
2024-05-09T22:02:14.163Z,10.45
2024-05-09T22:04:47.903Z,10.40
2024-05-09T22:07:16.877Z,10.36
2024-05-09T22:09:47.942Z,10.33
2024-05-09T22:12:16.678Z,10.32
2024-05-09T22:14:47.429Z,10.28
2024-05-09T22:17:16.410Z,10.27
2024-05-09T22:19:52.500Z,10.25
2024-05-09T22:22:21.473Z,10.24
2024-05-09T22:24:52.399Z,10.23
2024-05-09T22:27:21.115Z,10.21
2024-05-09T22:29:51.892Z,10.20
2024-05-09T22:32:20.715Z,10.19
2024-05-09T22:34:54.315Z,10.19
2024-05-09T22:37:23.173Z,10.19
2024-05-09T22:39:53.962Z,10.18
2024-05-09T22:42:22.601Z,10.18
2024-05-09T22:44:53.520Z,10.16
2024-05-09T22:47:22.224Z,10.15
2024-05-09T22:49:56.033Z,10.15
2024-05-09T22:52:24.712Z,10.15
2024-05-09T22:54:55.560Z,10.16
2024-05-09T22:57:24.226Z,10.15
2024-05-09T22:59:55.073Z,10.15
2024-05-09T23:02:23.983Z,10.17
2024-05-09T23:04:57.495Z,10.20
2024-05-09T23:07:26.376Z,10.20
2024-05-09T23:09:57.289Z,10.19
2024-05-09T23:12:25.891Z,10.22
2024-05-09T23:14:56.674Z,10.24
2024-05-09T23:17:25.554Z,10.27
2024-05-09T23:19:59.062Z,10.28
2024-05-09T23:22:27.764Z,10.30
2024-05-09T23:24:58.548Z,10.34
2024-05-09T23:27:27.286Z,10.36
2024-05-09T23:29:58.511Z,10.39
2024-05-09T23:32:27.848Z,10.45
2024-05-09T23:35:01.587Z,10.45
2024-05-09T23:37:30.396Z,10.50
2024-05-09T23:40:01.380Z,10.53
2024-05-09T23:42:30.540Z,10.57
2024-05-09T23:45:01.355Z,10.59
2024-05-09T23:47:30.221Z,10.64
2024-05-09T23:50:06.713Z,10.66
2024-05-09T23:52:40.120Z,10.71
2024-05-09T23:55:08.567Z,10.77
2024-05-09T23:57:39.810Z,10.79
